Watertown Regional Airport Watertown US
ICAO: KATY
IATA: ATY
Category: Medium
Scheduled Services: Yes

Elevation: 1749 ft
TransAlt. 18000 ft.

Airport Communications:
ASOS:126.625
MINNEAPOLIS CNTR:128.5
HURON RDO:122.5
CTAF/UNICOM:123.05

KATY Zoom In..

Runways:

(A) RW 12 length 6899 ft width 100 ft
---- / hdg 119

(B) RW 17 length 6894 ft width 100 ft
---- / hdg 174

(C) RW 30 length 6899 ft width 100 ft
---- / hdg 299

(D) RW 35 length 6894 ft width 100 ft
ILS 111.90 / hdg 354

Location; KATY
Day. 29 / Time. 08.53 Zulu
* Altimeter: 30.16
* Temperature: 08° c. 46.4°f.
* Wind from: 350° Speed 09 kn.
Dewpoint: 05° c.
Visibility: 10 Statute Miles.
Clouds: Clear (automated report).

KATY 290853Z AUTO 35009KT 10SM CLR 08/05 A3016 RMK AO2 SLP213 T00780050 53013


Wind From 350°
Speed 09 kn.

 
 
jpsmedia worldairports.se 2020   terms of use